Nearby METAR Reports


EGGW - Luton Airport, United Kingdom
Distance from station: ESE 6mi, 9km
Updated: Mon, 20-Nov-2017 5:20am GMT
Light drizzle, Mostly cloudy
Light drizzle, Mostly cloudy
 Wind from SSW
Wind: SSW 8 mph , 13 km/h
Temperature: 7°C
Wind Chill: 5°C
Dew Point: 6°C
Humidity: 93%
Barometer: 1016 hPa
Summary: Light Drizzle
Clouds: Mostly Cloudy
Visibility: 3 miles , 4 km
Cloud details: Few Clouds 396 m
Partly Cloudy 823 m
Mostly Cloudy 1097 m
2017/11/20 05:20 EGGW 200520Z AUTO 20007KT 4200 -DZ FEW013 SCT027 BKN036 07/06 Q1016
EGTC - Cranfield, United Kingdom
Distance from station: NNW 13mi, 22km
Updated: Fri, 17-Nov-2017 5:50pm GMT
NOT Current
Clear
Clear
 Wind from WSW
Wind: WSW 6 mph , 9 km/h
Temperature: 5°C
Wind Chill: 3°C
Dew Point: 2°C
Humidity: 81%
Barometer: 1027 hPa
Summary: Clear
Visibility: greater than 7 miles , 10 km
2017/11/17 17:50 EGTC 171750Z 25005KT CAVOK 05/02 Q1027

Metar display script from Saratoga-Weather.org

Powered by Cumulus v1.9.4 (1098)